Time;durP1;ratioP1;P1;durP2;ratioP2;P2;SDS_P1;SDS_P2;PMS_P1;PMS_P2;Temp;Humidity;BMP_temperature;BMP_pressure;BME280_temperature;BME280_humidity;BME280_pressure;Samples;Min_cycle;Max_cycle;Signal;HPM_P1;HPM_P2
2022/10/13 00:00:50;;;;;;;10.10;3.97;;;10.40;99.90;;;;;;6207359;22;20015;-91
2022/10/13 00:03:16;;;;;;;9.40;4.23;;;10.40;99.90;;;;;;6231965;22;20016;-91
2022/10/13 00:05:44;;;;;;;9.07;4.00;;;10.40;99.90;;;;;;6257425;22;20047;-92
2022/10/13 00:08:12;;;;;;;10.52;4.00;;;10.40;99.90;;;;;;6255548;22;20144;-91
2022/10/13 00:10:40;;;;;;;10.20;4.47;;;10.30;99.90;;;;;;6255238;22;20019;-92
2022/10/13 00:13:07;;;;;;;7.93;3.80;;;10.30;99.90;;;;;;6256135;22;20015;-92
2022/10/13 00:15:40;;;;;;;9.95;4.53;;;10.30;99.90;;;;;;6255912;22;20343;-91
2022/10/13 00:18:07;;;;;;;9.48;4.78;;;10.30;99.90;;;;;;6256065;22;20073;-91
2022/10/13 00:20:33;;;;;;;10.57;4.78;;;10.30;99.90;;;;;;6232080;22;20059;-91
2022/10/13 00:22:58;;;;;;;10.77;4.35;;;10.40;99.90;;;;;;6256908;22;20344;-91
2022/10/13 00:25:24;;;;;;;8.67;4.40;;;10.40;99.90;;;;;;6256962;22;20055;-92
2022/10/13 00:28:15;;;;;;;10.18;4.22;;;10.40;99.90;;;;;;6257137;22;20046;-89
2022/10/13 00:30:42;;;;;;;10.68;4.40;;;10.40;99.90;;;;;;6253729;22;20019;-91
2022/10/13 00:33:09;;;;;;;10.13;4.40;;;10.40;99.90;;;;;;6256812;22;20023;-91
2022/10/13 00:35:40;;;;;;;9.20;4.25;;;10.40;99.90;;;;;;6256868;22;20395;-90
2022/10/13 00:38:09;;;;;;;10.18;3.92;;;10.40;99.90;;;;;;6256394;22;20011;-91
2022/10/13 00:40:43;;;;;;;8.75;4.30;;;10.50;99.90;;;;;;6255731;22;20011;-91
2022/10/13 00:47:12;;;;;;;10.25;4.10;;;10.40;99.90;;;;;;6308021;22;20031;-90
2022/10/13 00:49:57;;;;;;;9.23;4.05;;;10.40;99.90;;;;;;6133688;23;20024;-91
2022/10/13 00:52:25;;;;;;;8.23;4.00;;;10.40;99.90;;;;;;6238090;22;20022;-89
2022/10/13 00:54:51;;;;;;;10.70;4.80;;;10.40;99.90;;;;;;6301357;22;20034;-89
2022/10/13 00:57:19;;;;;;;8.70;4.50;;;10.40;99.90;;;;;;6241026;22;20207;-91
2022/10/13 00:59:55;;;;;;;8.40;4.05;;;10.40;99.90;;;;;;6257114;22;20066;-92
2022/10/13 01:02:22;;;;;;;7.65;3.90;;;10.40;99.90;;;;;;6256724;22;20019;-92
2022/10/13 01:04:49;;;;;;;8.27;4.10;;;10.40;99.90;;;;;;6231360;22;20317;-92
2022/10/13 01:07:34;;;;;;;11.35;4.32;;;10.40;99.90;;;;;;6231621;22;20072;-91
2022/10/13 01:16:46;;;;;;;7.82;3.97;;;10.30;99.90;;;;;;6265427;22;20023;-90
2022/10/13 01:19:43;;;;;;;11.10;4.72;;;10.30;99.90;;;;;;6225844;22;20065;-90
2022/10/13 01:30:12;;;;;;;8.65;4.25;;;10.30;99.90;;;;;;6315339;22;20026;-91
2022/10/13 01:33:00;;;;;;;11.18;4.57;;;10.20;99.90;;;;;;6258199;22;20102;-90
2022/10/13 02:09:09;;;;;;;9.50;4.60;;;10.20;99.90;;;;;;6277286;22;20019;-91
2022/10/13 02:11:36;;;;;;;11.57;4.68;;;10.20;99.90;;;;;;6225771;22;20016;-90
2022/10/13 02:14:19;;;;;;;8.85;4.95;;;10.20;99.90;;;;;;6225665;22;20015;-91
2022/10/13 02:16:48;;;;;;;14.25;4.93;;;10.20;99.90;;;;;;6226226;22;20031;-90
2022/10/13 02:19:17;;;;;;;12.02;5.18;;;10.20;99.90;;;;;;6226131;22;20015;-92
2022/10/13 02:21:43;;;;;;;10.02;4.65;;;10.20;99.90;;;;;;6225135;22;20445;-90
2022/10/13 02:24:09;;;;;;;10.63;4.90;;;10.30;99.90;;;;;;6225307;22;20081;-90
2022/10/13 02:26:36;;;;;;;12.50;5.47;;;10.20;99.90;;;;;;6225006;22;20023;-88
2022/10/13 02:29:12;;;;;;;;;;;10.20;99.90;;;;;;6225406;22;20091;-89
2022/10/13 02:31:39;;;;;;;10.98;5.28;;;10.20;99.90;;;;;;6224923;22;19926;-92
2022/10/13 02:34:05;;;;;;;10.20;5.15;;;10.30;99.90;;;;;;6249924;22;20019;-89
2022/10/13 02:36:32;;;;;;;11.60;5.15;;;10.30;99.90;;;;;;6224660;22;20015;-89
2022/10/13 02:38:58;;;;;;;11.90;5.35;;;10.30;99.90;;;;;;6224757;22;20103;-88
2022/10/13 02:41:23;;;;;;;10.77;5.57;;;10.30;99.90;;;;;;6224854;22;20043;-89
2022/10/13 02:43:49;;;;;;;9.37;4.93;;;10.30;99.90;;;;;;6224668;22;20011;-90
2022/10/13 02:46:15;;;;;;;10.97;5.40;;;10.30;99.90;;;;;;6225044;22;20346;-90
2022/10/13 02:48:41;;;;;;;14.27;5.53;;;10.30;99.90;;;;;;6199538;22;20094;-90
2022/10/13 02:51:06;;;;;;;15.23;5.70;;;10.30;99.90;;;;;;6198358;22;20019;-89
2022/10/13 02:53:32;;;;;;;10.77;5.07;;;10.30;99.90;;;;;;6199677;22;20012;-89
2022/10/13 02:55:58;;;;;;;10.67;5.27;;;10.30;99.90;;;;;;6225875;22;20059;-89
2022/10/13 02:58:24;;;;;;;10.47;4.73;;;10.30;99.90;;;;;;6227339;22;19999;-91
2022/10/13 03:00:49;;;;;;;10.97;5.50;;;10.30;99.90;;;;;;6226603;22;20015;-91
2022/10/13 03:03:15;;;;;;;9.43;5.00;;;10.30;99.90;;;;;;6225031;22;20019;-89
2022/10/13 03:05:41;;;;;;;10.93;4.53;;;10.30;99.90;;;;;;6174944;22;20012;-92
2022/10/13 03:08:07;;;;;;;8.70;5.07;;;10.30;99.90;;;;;;6174558;22;20338;-89
2022/10/13 03:10:32;;;;;;;11.53;4.97;;;10.30;99.90;;;;;;6171213;23;20012;-89
2022/10/13 03:12:58;;;;;;;10.60;4.90;;;10.30;99.90;;;;;;6169381;23;20255;-90
2022/10/13 03:15:24;;;;;;;10.63;4.73;;;10.30;99.90;;;;;;6169599;23;20381;-90
2022/10/13 03:17:50;;;;;;;12.37;5.17;;;10.30;99.90;;;;;;6194476;23;20027;-89
2022/10/13 03:20:15;;;;;;;10.73;5.00;;;10.30;99.90;;;;;;6194738;23;20286;-89
2022/10/13 03:22:41;;;;;;;10.40;5.50;;;10.30;99.90;;;;;;6169393;23;20075;-89
2022/10/13 03:25:07;;;;;;;11.33;5.00;;;10.30;99.90;;;;;;6217186;23;20023;-89
2022/10/13 03:27:33;;;;;;;11.57;5.25;;;10.30;99.90;;;;;;6192565;23;20442;-92
2022/10/13 03:29:59;;;;;;;10.07;5.00;;;10.30;99.90;;;;;;6180127;23;20012;-88
2022/10/13 03:32:25;;;;;;;11.60;4.77;;;10.30;99.90;;;;;;6217224;23;20027;-89
2022/10/13 03:34:51;;;;;;;10.00;5.13;;;10.30;99.90;;;;;;6149922;23;20016;-89
2022/10/13 03:37:17;;;;;;;9.40;4.85;;;10.40;99.90;;;;;;6193013;23;20020;-92
2022/10/13 03:39:42;;;;;;;11.25;5.55;;;10.30;99.90;;;;;;6168132;23;20031;-91
2022/10/13 03:42:09;;;;;;;10.93;5.63;;;10.40;99.90;;;;;;6218095;23;20056;-90
2022/10/13 03:44:34;;;;;;;11.57;5.07;;;10.30;99.90;;;;;;6142731;23;20094;-89
2022/10/13 03:47:00;;;;;;;10.17;4.83;;;10.40;99.90;;;;;;6169073;23;20020;-90
2022/10/13 03:49:26;;;;;;;10.60;5.83;;;10.30;99.90;;;;;;6194158;23;20094;-92
2022/10/13 03:51:51;;;;;;;12.23;5.77;;;10.40;99.90;;;;;;6193776;23;20071;-89
2022/10/13 03:54:17;;;;;;;11.33;5.27;;;10.40;99.90;;;;;;6193826;23;20410;-89
2022/10/13 03:56:43;;;;;;;10.83;5.30;;;10.40;99.90;;;;;;6169853;23;20099;-89
2022/10/13 03:59:11;;;;;;;10.90;5.50;;;10.40;99.90;;;;;;6169906;23;20051;-91
2022/10/13 04:01:38;;;;;;;12.40;5.60;;;10.40;99.90;;;;;;6194128;23;20323;-90
2022/10/13 04:04:04;;;;;;;10.00;5.03;;;10.40;99.90;;;;;;6219434;23;20008;-90
2022/10/13 04:06:30;;;;;;;12.38;5.03;;;10.40;99.90;;;;;;6194327;23;20027;-91
2022/10/13 04:08:56;;;;;;;11.95;6.22;;;10.40;99.90;;;;;;6201703;22;20015;-90
2022/10/13 04:11:32;;;;;;;10.55;5.00;;;10.40;99.90;;;;;;6224616;22;20020;-89
2022/10/13 04:13:58;;;;;;;10.23;5.70;;;10.40;99.90;;;;;;6224876;22;20070;-93
2022/10/13 04:16:26;;;;;;;12.60;5.93;;;10.40;99.90;;;;;;6224580;22;20020;-90
2022/10/13 04:18:55;;;;;;;11.07;5.07;;;10.40;99.90;;;;;;6224606;22;20059;-91
2022/10/13 04:21:22;;;;;;;11.38;4.93;;;10.40;99.90;;;;;;6221789;22;20023;-88
2022/10/13 04:23:48;;;;;;;;;;;10.40;99.90;;;;;;6222331;22;20024;-89
2022/10/13 04:26:38;;;;;;;10.93;5.32;;;10.40;99.90;;;;;;6222263;22;20001;-88
2022/10/13 04:29:28;;;;;;;10.02;5.10;;;10.40;99.90;;;;;;6225113;22;20015;-91
2022/10/13 04:32:09;;;;;;;12.38;5.65;;;10.30;99.90;;;;;;6225768;22;20023;-90
2022/10/13 04:34:35;;;;;;;10.45;5.22;;;10.40;99.90;;;;;;6226231;22;20019;-91
2022/10/13 04:37:01;;;;;;;12.97;5.53;;;10.30;99.90;;;;;;6176630;22;20341;-91
2022/10/13 04:39:26;;;;;;;11.88;5.47;;;10.40;99.90;;;;;;6226204;22;20026;-91
2022/10/13 04:41:52;;;;;;;12.33;5.67;;;10.40;99.90;;;;;;6201524;22;20015;-91
2022/10/13 04:44:18;;;;;;;11.83;5.47;;;10.40;99.90;;;;;;6200724;22;20475;-91
2022/10/13 04:46:53;;;;;;;11.80;5.53;;;10.40;99.90;;;;;;6176765;22;20016;-91
2022/10/13 04:49:18;;;;;;;13.07;6.30;;;10.40;99.90;;;;;;6225508;22;20062;-91
2022/10/13 04:51:44;;;;;;;12.60;5.80;;;10.40;99.90;;;;;;6224953;22;20015;-90
2022/10/13 04:54:10;;;;;;;11.73;6.50;;;10.40;99.90;;;;;;6201536;22;20015;-91
2022/10/13 04:56:35;;;;;;;14.37;6.13;;;10.40;99.90;;;;;;6230263;22;20024;-90
2022/10/13 04:59:04;;;;;;;12.83;5.80;;;10.40;99.90;;;;;;6242082;22;20506;-95
2022/10/13 05:01:31;;;;;;;13.60;5.85;;;10.40;99.90;;;;;;6224825;22;20019;-92
2022/10/13 05:04:00;;;;;;;13.27;6.15;;;10.50;99.90;;;;;;6201562;22;20062;-91
2022/10/13 05:06:29;;;;;;;11.77;5.93;;;10.50;99.90;;;;;;6225892;22;20110;-91
2022/10/13 05:08:55;;;;;;;10.65;5.50;;;10.40;99.90;;;;;;6200396;22;20086;-90
2022/10/13 05:11:23;;;;;;;12.38;6.53;;;10.50;99.90;;;;;;6251080;22;20077;-91
2022/10/13 05:13:49;;;;;;;12.57;6.35;;;10.40;99.90;;;;;;6226027;22;20023;-90
2022/10/13 05:16:16;;;;;;;13.32;6.55;;;10.50;99.90;;;;;;6201126;22;20015;-91
2022/10/13 05:19:06;;;;;;;13.00;6.57;;;10.50;99.90;;;;;;6225766;22;20012;-91
2022/10/13 05:21:35;;;;;;;14.02;6.35;;;10.50;99.90;;;;;;6225749;22;20019;-91
2022/10/13 05:24:01;;;;;;;11.88;5.57;;;10.50;99.90;;;;;;6200480;22;20019;-91
2022/10/13 05:26:30;;;;;;;13.20;6.57;;;10.50;99.90;;;;;;6225456;22;20011;-91
2022/10/13 05:28:57;;;;;;;13.20;6.43;;;10.50;99.90;;;;;;6225793;22;20095;-91
2022/10/13 05:31:34;;;;;;;14.25;6.45;;;10.50;99.90;;;;;;6236200;22;20069;-89
2022/10/13 05:34:00;;;;;;;15.00;6.60;;;10.50;99.90;;;;;;6236147;22;20095;-90
2022/10/13 05:36:29;;;;;;;13.73;6.40;;;10.50;99.90;;;;;;6226754;22;20016;-91
2022/10/13 05:39:00;;;;;;;14.43;6.47;;;10.50;99.90;;;;;;6225081;22;20015;-91
2022/10/13 05:41:28;;;;;;;15.00;6.82;;;10.50;99.90;;;;;;6225797;22;20091;-91
2022/10/13 05:43:58;;;;;;;11.38;6.35;;;10.50;99.90;;;;;;6225674;22;20016;-91
2022/10/13 05:46:24;;;;;;;12.85;6.25;;;10.50;99.90;;;;;;6225603;22;20023;-91
2022/10/13 05:48:50;;;;;;;14.98;6.78;;;10.60;99.90;;;;;;6225518;22;20008;-91
2022/10/13 05:51:21;;;;;;;16.30;6.63;;;10.50;99.90;;;;;;6200345;22;20467;-90
2022/10/13 05:53:50;;;;;;;12.35;6.25;;;10.50;99.90;;;;;;6225537;22;20016;-90
2022/10/13 05:56:20;;;;;;;16.20;6.75;;;10.50;99.90;;;;;;6225642;22;20046;-91
2022/10/13 05:58:51;;;;;;;15.43;7.25;;;10.50;99.90;;;;;;6225461;22;20015;-92
2022/10/13 06:01:21;;;;;;;13.57;6.28;;;10.50;99.90;;;;;;6225785;22;20349;-90
2022/10/13 06:03:49;;;;;;;13.00;6.20;;;10.50;99.90;;;;;;6225537;22;20016;-91
2022/10/13 06:06:15;;;;;;;16.80;6.65;;;10.50;99.90;;;;;;6200905;22;20090;-90
2022/10/13 06:08:41;;;;;;;14.23;5.82;;;10.50;99.90;;;;;;6225420;22;20016;-91
2022/10/13 06:11:08;;;;;;;10.70;6.75;;;10.50;99.90;;;;;;6225025;22;20523;-90
2022/10/13 06:13:34;;;;;;;13.20;6.30;;;10.50;99.90;;;;;;6200496;22;20090;-90
2022/10/13 06:15:59;;;;;;;13.10;6.33;;;10.50;99.90;;;;;;6200341;22;20461;-90
2022/10/13 06:18:25;;;;;;;11.90;6.43;;;10.50;99.90;;;;;;6225777;22;20278;-91
2022/10/13 06:20:51;;;;;;;12.70;5.93;;;10.50;99.90;;;;;;6175486;22;20487;-92
2022/10/13 06:23:16;;;;;;;15.47;6.97;;;10.50;99.90;;;;;;6175960;22;20055;-91
2022/10/13 06:25:49;;;;;;;11.60;6.33;;;10.50;99.90;;;;;;6225743;22;20019;-92
2022/10/13 06:28:17;;;;;;;12.05;6.40;;;10.50;99.90;;;;;;6176578;22;20015;-93
2022/10/13 06:30:51;;;;;;;11.50;6.32;;;10.50;99.90;;;;;;6225619;22;20011;-94
2022/10/13 06:33:18;;;;;;;15.10;6.45;;;10.50;99.90;;;;;;6224780;22;20392;-93
2022/10/13 06:35:43;;;;;;;14.23;6.53;;;10.50;99.90;;;;;;6225163;22;20008;-90
2022/10/13 06:38:09;;;;;;;14.37;6.97;;;10.50;99.90;;;;;;6223127;22;20514;-90
2022/10/13 06:40:35;;;;;;;12.30;6.18;;;10.50;99.90;;;;;;6224368;22;20051;-91
2022/10/13 06:43:01;;;;;;;13.00;6.63;;;10.50;99.90;;;;;;6224187;22;20016;-91
2022/10/13 06:45:27;;;;;;;13.17;6.43;;;10.50;99.90;;;;;;6225308;22;20023;-91
2022/10/13 06:47:54;;;;;;;12.68;6.68;;;10.60;99.90;;;;;;6225312;22;20015;-91
2022/10/13 06:50:21;;;;;;;13.93;6.57;;;10.60;99.90;;;;;;6225268;22;20022;-91
2022/10/13 06:52:47;;;;;;;12.75;6.55;;;10.60;99.90;;;;;;6225635;22;20050;-93
2022/10/13 06:55:13;;;;;;;14.83;7.63;;;10.60;99.90;;;;;;6225463;22;20016;-92
2022/10/13 06:57:38;;;;;;;13.20;6.30;;;10.70;99.90;;;;;;6225928;22;20254;-93
2022/10/13 07:00:05;;;;;;;13.70;6.43;;;10.70;99.90;;;;;;6226329;22;20016;-93
2022/10/13 07:02:31;;;;;;;12.32;6.43;;;10.70;99.90;;;;;;6225347;22;20399;-92
2022/10/13 07:04:57;;;;;;;14.90;7.50;;;10.70;99.90;;;;;;6225254;22;20015;-93
2022/10/13 07:07:23;;;;;;;14.43;7.57;;;10.80;99.90;;;;;;6225220;22;20035;-94
2022/10/13 07:09:49;;;;;;;12.65;7.25;;;10.80;99.90;;;;;;6188140;23;20087;-93
2022/10/13 07:12:14;;;;;;;17.37;8.33;;;10.80;99.90;;;;;;6194710;23;20027;-93
2022/10/13 07:14:40;;;;;;;15.37;7.20;;;10.80;99.90;;;;;;6194885;23;20503;-91
2022/10/13 07:17:06;;;;;;;16.33;7.47;;;10.80;99.90;;;;;;6194873;23;20012;-91
2022/10/13 07:19:32;;;;;;;14.02;7.03;;;10.80;99.90;;;;;;6194744;23;20020;-91
2022/10/13 07:21:57;;;;;;;14.37;6.90;;;10.90;99.90;;;;;;6194690;23;20016;-91
2022/10/13 07:24:24;;;;;;;15.07;7.50;;;10.90;99.90;;;;;;6169701;23;20337;-90
2022/10/13 07:26:50;;;;;;;14.75;6.65;;;10.90;99.90;;;;;;6194320;23;20020;-91
2022/10/13 07:29:15;;;;;;;14.23;6.90;;;11.00;99.90;;;;;;6169753;23;20014;-92
2022/10/13 07:31:43;;;;;;;14.57;6.83;;;11.00;99.90;;;;;;6220669;23;20023;-92
2022/10/13 07:34:09;;;;;;;15.35;7.35;;;11.00;99.90;;;;;;6228749;23;20016;-92
2022/10/13 07:36:37;;;;;;;13.35;6.97;;;11.10;99.90;;;;;;6214394;23;20095;-92
2022/10/13 07:39:03;;;;;;;15.25;7.95;;;11.10;99.90;;;;;;6201765;23;20106;-92
2022/10/13 07:41:28;;;;;;;16.42;7.72;;;11.20;99.90;;;;;;6193919;23;20035;-92
2022/10/13 07:46:30;;;;;;;13.57;6.53;;;11.20;99.90;;;;;;6229355;23;20020;-88
2022/10/13 07:51:44;;;;;;;15.23;7.47;;;11.30;99.90;;;;;;6218475;23;20082;-88
2022/10/13 07:54:10;;;;;;;14.13;7.68;;;11.40;99.90;;;;;;6169569;23;20016;-89
2022/10/13 07:56:39;;;;;;;16.53;7.90;;;11.40;99.90;;;;;;6214627;23;20020;-92
2022/10/13 07:59:25;;;;;;;13.73;7.28;;;11.40;99.90;;;;;;6218144;23;20024;-93
2022/10/13 08:01:54;;;;;;;16.90;7.40;;;11.40;99.90;;;;;;6195002;23;20047;-94
2022/10/13 08:04:20;;;;;;;;;;;11.50;99.90;;;;;;6194802;23;20055;-92
2022/10/13 08:06:46;;;;;;;14.93;6.75;;;11.50;99.90;;;;;;6196196;23;19915;-92
2022/10/13 08:09:12;;;;;;;15.17;7.50;;;11.50;99.90;;;;;;6221191;23;20017;-93
2022/10/13 08:11:38;;;;;;;14.73;6.68;;;11.60;99.90;;;;;;6171957;23;20044;-94
2022/10/13 08:14:03;;;;;;;13.23;7.00;;;11.60;99.90;;;;;;6171859;23;20450;-89
2022/10/13 08:16:31;;;;;;;13.80;7.33;;;11.60;99.90;;;;;;6221439;23;20335;-91
2022/10/13 08:18:58;;;;;;;15.00;7.78;;;11.70;99.90;;;;;;6171994;23;20508;-91
2022/10/13 08:21:25;;;;;;;15.13;7.40;;;11.70;99.90;;;;;;6221623;23;20031;-89
2022/10/13 08:23:51;;;;;;;14.05;7.20;;;11.70;99.90;;;;;;6221328;23;20090;-89
2022/10/13 08:26:27;;;;;;;13.90;7.73;;;11.80;99.90;;;;;;6221173;23;20059;-92
2022/10/13 08:28:53;;;;;;;16.30;7.27;;;11.80;99.90;;;;;;6221349;23;20366;-88
2022/10/13 08:31:19;;;;;;;15.63;7.90;;;11.80;99.90;;;;;;6171405;23;20313;-91
2022/10/13 08:33:50;;;;;;;14.55;7.75;;;11.80;99.90;;;;;;6221569;23;20016;-88
2022/10/13 08:36:17;;;;;;;13.90;7.28;;;11.80;99.90;;;;;;6220872;23;20446;-88
2022/10/13 08:38:43;;;;;;;17.90;8.52;;;11.90;99.90;;;;;;6195783;23;20511;-88
2022/10/13 08:41:37;;;;;;;14.65;7.32;;;11.80;99.90;;;;;;6196175;23;20022;-89
2022/10/13 08:44:06;;;;;;;13.55;7.47;;;11.90;99.90;;;;;;6216404;23;20331;-92
2022/10/13 08:46:45;;;;;;;14.23;7.47;;;11.90;99.90;;;;;;6221032;23;20024;-88
2022/10/13 08:49:13;;;;;;;13.30;7.13;;;11.90;99.90;;;;;;6221205;23;20071;-89
2022/10/13 08:51:40;;;;;;;16.80;8.15;;;11.90;99.90;;;;;;6196087;23;20020;-87
2022/10/13 08:54:06;;;;;;;16.17;7.78;;;11.90;99.90;;;;;;6196078;23;20083;-91
2022/10/13 08:56:34;;;;;;;15.32;7.70;;;11.90;99.90;;;;;;6171355;23;20047;-88
2022/10/13 08:59:03;;;;;;;15.07;7.60;;;11.90;99.90;;;;;;6195905;23;20055;-89
2022/10/13 09:01:33;;;;;;;14.10;7.30;;;11.90;99.90;;;;;;6196008;23;20023;-89
2022/10/13 09:04:13;;;;;;;16.52;8.30;;;11.90;99.90;;;;;;6196047;23;20453;-90
2022/10/13 09:06:44;;;;;;;13.90;8.15;;;12.00;99.90;;;;;;6195594;23;20385;-91
2022/10/13 09:09:11;;;;;;;19.05;9.05;;;12.00;99.90;;;;;;6195473;23;20016;-88
2022/10/13 09:11:43;;;;;;;15.52;8.25;;;12.00;99.90;;;;;;6195801;23;20099;-89
2022/10/13 09:14:40;;;;;;;16.75;7.95;;;12.00;99.90;;;;;;6195762;23;20404;-90
2022/10/13 09:17:22;;;;;;;18.08;8.85;;;12.00;99.90;;;;;;6176535;23;20051;-89
2022/10/13 09:19:57;;;;;;;17.48;8.50;;;12.10;99.90;;;;;;6195914;23;20020;-90
2022/10/13 09:22:26;;;;;;;16.65;7.75;;;12.10;99.90;;;;;;6195863;23;20054;-88
2022/10/13 09:25:17;;;;;;;19.15;9.20;;;12.10;99.90;;;;;;6195831;23;20480;-90
2022/10/13 09:27:57;;;;;;;13.60;7.45;;;12.10;99.90;;;;;;6196061;23;20020;-91
2022/10/13 09:30:33;;;;;;;17.38;8.55;;;12.20;99.90;;;;;;6220828;23;20334;-90
2022/10/13 09:33:08;;;;;;;17.15;8.85;;;12.20;99.90;;;;;;6195981;23;20020;-89
2022/10/13 09:35:41;;;;;;;18.05;9.88;;;12.20;99.90;;;;;;6196519;23;20031;-90
2022/10/13 09:38:41;;;;;;;17.13;8.73;;;12.30;99.90;;;;;;6234100;23;20012;-87
2022/10/13 09:41:20;;;;;;;18.77;9.25;;;12.30;99.90;;;;;;6158957;23;20048;-91
2022/10/13 09:43:46;;;;;;;17.70;8.48;;;12.30;99.90;;;;;;6195605;23;20016;-92
2022/10/13 09:46:35;;;;;;;17.63;8.23;;;12.30;99.90;;;;;;6195155;23;20099;-89
2022/10/13 09:49:30;;;;;;;18.27;8.32;;;12.40;99.90;;;;;;6195485;23;20354;-90
2022/10/13 09:52:17;;;;;;;16.05;8.82;;;12.40;99.90;;;;;;6220434;23;20020;-90
2022/10/13 09:54:51;;;;;;;15.05;8.23;;;12.40;99.90;;;;;;6220102;23;20058;-90
2022/10/13 09:57:41;;;;;;;16.40;9.05;;;12.40;99.90;;;;;;6195371;23;20042;-88
2022/10/13 10:00:24;;;;;;;15.10;7.68;;;12.40;99.90;;;;;;6195247;23;20097;-90
2022/10/13 10:03:15;;;;;;;16.92;9.20;;;12.50;99.90;;;;;;6220514;23;20099;-90
2022/10/13 10:05:54;;;;;;;16.95;8.60;;;12.40;99.90;;;;;;6195506;23;20044;-89
2022/10/13 10:09:04;;;;;;;16.38;8.15;;;12.50;99.90;;;;;;6220498;23;20019;-89
2022/10/13 10:11:39;;;;;;;15.68;7.65;;;12.50;99.90;;;;;;6182066;23;20051;-90
2022/10/13 10:14:16;;;;;;;16.65;8.00;;;12.50;99.90;;;;;;6195550;23;20027;-90
2022/10/13 10:16:48;;;;;;;17.58;8.40;;;12.60;99.90;;;;;;6197322;23;20016;-91
2022/10/13 10:19:30;;;;;;;16.98;8.68;;;12.60;99.90;;;;;;6195661;23;20094;-89
2022/10/13 10:21:55;;;;;;;17.75;7.68;;;12.60;99.90;;;;;;6195321;23;20023;-88
2022/10/13 10:24:53;;;;;;;70.03;30.73;;;12.70;99.90;;;;;;6195203;23;20020;-89
2022/10/13 10:27:44;;;;;;;23.38;15.60;;;12.70;99.90;;;;;;6217464;23;20569;-91
2022/10/13 10:30:20;;;;;;;19.40;11.63;;;12.70;99.90;;;;;;6220237;23;20023;-91
2022/10/13 10:33:10;;;;;;;120.53;91.28;;;12.80;99.90;;;;;;6220134;23;20020;-91
2022/10/13 10:35:48;;;;;;;225.23;162.93;;;12.80;99.90;;;;;;6220127;23;20042;-90
2022/10/13 10:38:24;;;;;;;186.35;167.32;;;12.90;99.90;;;;;;6220054;23;20016;-91
2022/10/13 10:41:11;;;;;;;20.75;11.95;;;12.90;99.90;;;;;;6245141;23;20027;-87
2022/10/13 10:43:47;;;;;;;18.53;9.23;;;12.90;99.90;;;;;;6220061;23;20016;-89
2022/10/13 10:46:28;;;;;;;17.52;9.23;;;13.00;99.90;;;;;;6220011;23;20023;-91
2022/10/13 10:48:59;;;;;;;14.80;8.50;;;13.00;99.90;;;;;;6194451;23;20362;-88
2022/10/13 10:51:43;;;;;;;16.35;9.95;;;12.90;99.90;;;;;;6245205;23;20074;-91
2022/10/13 10:54:36;;;;;;;18.50;8.98;;;13.00;99.90;;;;;;6194658;23;20397;-89
2022/10/13 10:57:24;;;;;;;16.25;7.85;;;13.00;99.90;;;;;;6194891;23;20012;-90
2022/10/13 10:59:57;;;;;;;15.85;8.98;;;13.00;99.90;;;;;;6194475;23;20030;-88
2022/10/13 11:02:45;;;;;;;16.08;7.72;;;13.00;99.90;;;;;;6193863;23;20098;-88
2022/10/13 11:12:57;;;;;;;15.30;8.77;;;13.00;99.90;;;;;;6307183;22;20019;-87
2022/10/13 11:16:14;;;;;;;15.05;8.00;;;13.00;99.90;;;;;;6280479;22;20022;-88
2022/10/13 11:19:04;;;;;;;15.63;8.20;;;13.00;99.90;;;;;;6278185;22;20016;-86
2022/10/13 11:21:58;;;;;;;14.95;7.47;;;13.00;99.90;;;;;;6279212;22;20018;-88
2022/10/13 11:24:33;;;;;;;13.95;7.30;;;13.00;99.90;;;;;;6280311;22;20069;-89
2022/10/13 11:27:10;;;;;;;12.93;6.97;;;13.00;99.90;;;;;;6252760;22;20023;-87
2022/10/13 11:29:45;;;;;;;15.73;7.65;;;13.10;99.90;;;;;;6280264;22;20026;-86
2022/10/13 11:32:26;;;;;;;17.60;8.00;;;13.10;99.90;;;;;;6280300;22;20046;-86
2022/10/13 11:35:25;;;;;;;13.35;6.53;;;13.10;99.90;;;;;;6254478;22;20011;-86
2022/10/13 11:37:56;;;;;;;12.80;6.68;;;13.10;99.90;;;;;;6281703;22;20022;-86
2022/10/13 11:40:38;;;;;;;16.27;7.25;;;13.20;99.90;;;;;;6285647;22;20102;-88
2022/10/13 11:43:36;;;;;;;12.07;6.72;;;13.20;99.90;;;;;;6310073;22;20021;-85
2022/10/13 11:46:10;;;;;;;15.15;6.88;;;13.20;99.90;;;;;;6273990;22;20060;-90
2022/10/13 11:49:13;;;;;;;14.07;7.38;;;13.20;99.90;;;;;;6256975;22;20020;-89
2022/10/13 11:51:50;;;;;;;13.77;6.60;;;13.30;99.90;;;;;;6256499;22;20437;-88
2022/10/13 11:54:37;;;;;;;13.38;6.97;;;13.30;99.90;;;;;;6282218;22;20332;-88
2022/10/13 11:57:22;;;;;;;14.50;7.28;;;13.30;99.90;;;;;;6282083;22;20019;-86
2022/10/13 11:59:54;;;;;;;36.90;20.38;;;13.30;99.90;;;;;;6256657;22;20016;-87
2022/10/13 12:02:24;;;;;;;385.52;131.55;;;13.30;99.90;;;;;;6256768;22;20030;-87
2022/10/13 12:05:26;;;;;;;37.90;21.60;;;13.30;99.90;;;;;;6256592;22;20011;-87
2022/10/13 12:07:56;;;;;;;16.98;10.27;;;13.40;99.90;;;;;;6281100;22;20097;-86
2022/10/13 12:10:33;;;;;;;14.80;8.25;;;13.40;99.90;;;;;;6256884;22;20019;-88
2022/10/13 12:13:03;;;;;;;15.63;8.77;;;13.40;99.90;;;;;;6281724;22;20019;-91
2022/10/13 12:16:05;;;;;;;14.75;8.60;;;13.50;99.90;;;;;;6273004;22;20042;-88
2022/10/13 12:18:37;;;;;;;17.45;9.73;;;13.50;99.90;;;;;;6290279;22;20026;-87
2022/10/13 12:21:15;;;;;;;14.32;7.95;;;13.50;99.90;;;;;;6256924;22;20019;-92
2022/10/13 12:23:41;;;;;;;15.35;7.50;;;13.60;99.90;;;;;;6256977;22;20020;-90
2022/10/13 12:26:07;;;;;;;26.92;20.88;;;13.60;99.90;;;;;;6256860;22;20011;-91
2022/10/13 12:28:55;;;;;;;16.83;7.72;;;13.70;99.90;;;;;;6256936;22;20462;-93
2022/10/13 12:31:25;;;;;;;14.50;7.75;;;13.70;99.90;;;;;;6256523;22;20077;-93
2022/10/13 12:33:59;;;;;;;16.63;9.48;;;13.70;99.90;;;;;;6257190;22;20364;-90
2022/10/13 12:36:33;;;;;;;12.40;6.97;;;13.70;99.90;;;;;;6282105;22;20089;-90
2022/10/13 12:39:10;;;;;;;12.90;7.05;;;13.70;99.90;;;;;;6232624;22;20398;-93
2022/10/13 12:41:42;;;;;;;11.05;6.53;;;13.80;99.90;;;;;;6256914;22;20444;-92
2022/10/13 12:44:14;;;;;;;12.57;6.60;;;13.80;99.90;;;;;;6257271;22;20033;-91
2022/10/13 12:46:42;;;;;;;14.45;6.93;;;13.80;99.90;;;;;;6256678;22;20345;-91
2022/10/13 12:49:28;;;;;;;14.55;6.80;;;13.80;99.90;;;;;;6256729;22;20012;-90
2022/10/13 12:52:02;;;;;;;13.43;6.53;;;13.80;99.90;;;;;;6256703;22;20042;-91
2022/10/13 12:54:31;;;;;;;12.88;6.82;;;13.80;99.90;;;;;;6256637;22;20019;-92
2022/10/13 12:57:00;;;;;;;13.30;6.80;;;13.80;99.90;;;;;;6256645;22;20027;-90
2022/10/13 12:59:29;;;;;;;13.07;6.75;;;13.80;99.90;;;;;;6256403;22;20015;-93
2022/10/13 13:02:01;;;;;;;11.02;6.50;;;13.80;99.90;;;;;;6256509;22;20094;-90
2022/10/13 13:04:36;;;;;;;11.45;6.82;;;13.80;99.90;;;;;;6256710;22;20011;-91
2022/10/13 13:07:03;;;;;;;11.88;6.78;;;13.80;99.90;;;;;;6282211;22;20027;-92
2022/10/13 13:09:32;;;;;;;15.77;6.32;;;13.80;99.90;;;;;;6255958;22;20011;-91
2022/10/13 13:12:20;;;;;;;13.43;6.55;;;13.80;99.90;;;;;;6254928;22;20019;-91
2022/10/13 13:14:53;;;;;;;11.82;6.50;;;13.80;99.90;;;;;;6255716;22;20012;-93
2022/10/13 13:17:19;;;;;;;14.80;6.72;;;13.80;99.90;;;;;;6254642;22;20019;-90
2022/10/13 13:19:50;;;;;;;11.57;6.60;;;13.80;99.90;;;;;;6253805;22;20094;-91
2022/10/13 13:22:16;;;;;;;15.00;7.13;;;13.80;99.90;;;;;;6254250;22;20391;-91
2022/10/13 13:24:42;;;;;;;13.80;7.70;;;13.90;99.90;;;;;;6255030;22;20039;-91
2022/10/13 13:27:21;;;;;;;12.00;6.45;;;13.90;99.90;;;;;;6255511;22;20016;-90
2022/10/13 13:30:13;;;;;;;12.50;6.25;;;13.90;99.90;;;;;;6257365;22;20023;-90
2022/10/13 13:32:39;;;;;;;13.07;6.88;;;13.90;99.90;;;;;;6256962;22;20524;-94
2022/10/13 13:35:05;;;;;;;13.07;6.65;;;14.00;99.90;;;;;;6264022;22;20022;-90
2022/10/13 13:37:44;;;;;;;16.23;8.45;;;14.00;99.90;;;;;;6230115;22;20020;-90
2022/10/13 13:40:19;;;;;;;13.45;6.95;;;14.00;99.90;;;;;;6257897;22;20019;-90
2022/10/13 13:42:45;;;;;;;12.40;6.85;;;14.00;99.90;;;;;;6263356;22;20026;-91
2022/10/13 17:19:03;;;;;;;2.60;0.60;;;13.10;99.90;;;;;;6246818;22;20028;-94
2022/10/13 17:21:28;;;;;;;3.67;0.80;;;13.10;99.90;;;;;;6196416;23;20099;-93
2022/10/13 17:23:55;;;;;;;2.60;0.77;;;13.10;99.90;;;;;;6195599;23;20465;-94
2022/10/13 17:26:21;;;;;;;;;;;13.10;99.90;;;;;;6197117;23;20035;-93
2022/10/13 17:28:46;;;;;;;1.23;0.50;;;13.20;99.90;;;;;;6196408;23;19916;-94
2022/10/13 17:40:18;;;;;;;2.53;1.05;;;13.10;99.90;;;;;;6308249;22;20027;-94
2022/10/13 17:42:43;;;;;;;4.38;1.20;;;13.10;99.90;;;;;;6231622;22;20077;-93
2022/10/13 17:45:09;;;;;;;4.57;1.20;;;13.10;99.90;;;;;;6257018;22;20089;-94
2022/10/13 17:47:35;;;;;;;2.40;1.27;;;13.10;99.90;;;;;;6257298;22;20254;-94
2022/10/13 17:50:01;;;;;;;2.00;0.87;;;13.00;99.90;;;;;;6256978;22;20018;-94